DFFD Airport Information

Runway Information
Runway 04L Length 9934 ft width 148 ft
Elevation 1034 ft Threshold 0 ft Heading 33
Runway 22R Length 9934 ft Width 148 ft
Elevation 982 ft Threshold 0 ft Heading 213
Runway 04R Length 6269 ft width 98 ft
Elevation 1040 ft Threshold 0 ft Heading 35
Runway 22L Length 6269 ft Width 98 ft
Elevation 994 ft Threshold 0 ft Heading 215
Airport Frequencies
Type A/G Name AG VOICE O Frequency 120.3 MHZ
Type APP Name OUAGA APP Frequency 118.1 MHZ
Type TWR Name OUAGA TWR Frequency 118.1 MHZ
Airport Navaids
Type VOR-DME Name Ouagadougou Frequency 112900 KHZ
Type NDB Name Ouagadougou Frequency 333 KHZ
Airport Weather Information & NOTAM
ADDS - METARS form results

(1107 UTC 29 May 2020)
Data provider http://aviationweather.gov/metar/data/
 
Forecast for: DFFD (OUAGADOUGOU (MIL, BF)
Text: TAF DFFD 291100Z 2912/3018 VRB08KT CAVOK
Forecast period: 1200 UTC 29 May 2020 to 1800 UTC 30 May 2020
Forecast type: FROM: standard forecast or significant change
Winds: variable direction winds at 9 MPH (8 knots; 4.1 m/s)
Visibility: 6 or more miles 10+ km)
Ceiling: unknown
Clouds: missing
Weather: NSW  (no significant weather)
Text: PROB30
Forecast period: 1800 UTC 29 May 2020 to 0000 UTC 30 May 2020
Forecast type: TEMPORARY: The following changes expected for less than half the time period
Visibility: missing
Ceiling: at least 12,000 feet AGL
Clouds: few clouds at 2300 feet AGL
few clouds at 3600 feet AGL
Weather: TS  (thunderstorm)